sensor_id;sensor_type;location;lat;lon;timestamp;temperature;humidity
24678;DHT22;12800;53.094;8.778;2023-04-15T00:01:24;9.50;76.50
24678;DHT22;12800;53.094;8.778;2023-04-15T00:03:51;9.50;76.60
24678;DHT22;12800;53.094;8.778;2023-04-15T00:06:18;9.50;76.70
24678;DHT22;12800;53.094;8.778;2023-04-15T00:08:47;9.50;76.70
24678;DHT22;12800;53.094;8.778;2023-04-15T00:11:13;9.60;76.80
24678;DHT22;12800;53.094;8.778;2023-04-15T00:13:40;9.60;76.90
24678;DHT22;12800;53.094;8.778;2023-04-15T00:16:08;9.60;76.90
24678;DHT22;12800;53.094;8.778;2023-04-15T00:18:34;9.60;76.90
24678;DHT22;12800;53.094;8.778;2023-04-15T00:21:00;9.70;76.90
24678;DHT22;12800;53.094;8.778;2023-04-15T00:23:27;9.70;77.20
24678;DHT22;12800;53.094;8.778;2023-04-15T00:25:53;9.70;76.80
24678;DHT22;12800;53.094;8.778;2023-04-15T00:28:19;9.70;76.90
24678;DHT22;12800;53.094;8.778;2023-04-15T00:30:45;9.70;76.80
24678;DHT22;12800;53.094;8.778;2023-04-15T00:33:12;9.60;76.80
24678;DHT22;12800;53.094;8.778;2023-04-15T00:35:38;9.60;76.90
24678;DHT22;12800;53.094;8.778;2023-04-15T00:38:05;9.60;77.10
24678;DHT22;12800;53.094;8.778;2023-04-15T00:40:32;9.60;77.10
24678;DHT22;12800;53.094;8.778;2023-04-15T00:42:58;9.60;77.10
24678;DHT22;12800;53.094;8.778;2023-04-15T00:45:25;9.60;77.30
24678;DHT22;12800;53.094;8.778;2023-04-15T00:47:52;9.60;77.30
24678;DHT22;12800;53.094;8.778;2023-04-15T00:50:18;9.60;77.50
24678;DHT22;12800;53.094;8.778;2023-04-15T00:52:44;9.50;77.50
24678;DHT22;12800;53.094;8.778;2023-04-15T00:55:10;9.60;77.50
24678;DHT22;12800;53.094;8.778;2023-04-15T00:57:36;9.50;77.50
24678;DHT22;12800;53.094;8.778;2023-04-15T01:00:02;9.50;77.60
24678;DHT22;12800;53.094;8.778;2023-04-15T01:02:30;9.50;77.70
24678;DHT22;12800;53.094;8.778;2023-04-15T01:04:56;9.50;77.70
24678;DHT22;12800;53.094;8.778;2023-04-15T01:07:21;9.50;77.90
24678;DHT22;12800;53.094;8.778;2023-04-15T01:09:47;9.40;78.00
24678;DHT22;12800;53.094;8.778;2023-04-15T01:12:13;9.40;78.00
24678;DHT22;12800;53.094;8.778;2023-04-15T01:14:40;9.40;78.10
24678;DHT22;12800;53.094;8.778;2023-04-15T01:17:05;9.40;78.20
24678;DHT22;12800;53.094;8.778;2023-04-15T01:19:32;9.40;78.40
24678;DHT22;12800;53.094;8.778;2023-04-15T01:21:58;9.40;78.50
24678;DHT22;12800;53.094;8.778;2023-04-15T01:24:25;9.40;78.60
24678;DHT22;12800;53.094;8.778;2023-04-15T01:26:52;9.30;78.50
24678;DHT22;12800;53.094;8.778;2023-04-15T01:29:18;9.30;78.70
24678;DHT22;12800;53.094;8.778;2023-04-15T01:31:51;9.30;78.60
24678;DHT22;12800;53.094;8.778;2023-04-15T01:34:17;9.30;78.60
24678;DHT22;12800;53.094;8.778;2023-04-15T01:36:43;9.30;78.80
24678;DHT22;12800;53.094;8.778;2023-04-15T01:39:09;9.30;78.80
24678;DHT22;12800;53.094;8.778;2023-04-15T01:41:35;9.30;79.00
24678;DHT22;12800;53.094;8.778;2023-04-15T01:44:00;9.20;79.10
24678;DHT22;12800;53.094;8.778;2023-04-15T01:46:26;9.20;79.20
24678;DHT22;12800;53.094;8.778;2023-04-15T01:48:52;9.20;79.20
24678;DHT22;12800;53.094;8.778;2023-04-15T01:51:17;9.20;79.20
24678;DHT22;12800;53.094;8.778;2023-04-15T01:53:43;9.20;79.40
24678;DHT22;12800;53.094;8.778;2023-04-15T01:56:09;9.20;79.50
24678;DHT22;12800;53.094;8.778;2023-04-15T01:58:35;9.20;79.50
24678;DHT22;12800;53.094;8.778;2023-04-15T02:01:00;9.20;79.60
24678;DHT22;12800;53.094;8.778;2023-04-15T02:03:27;9.20;79.60
24678;DHT22;12800;53.094;8.778;2023-04-15T02:05:53;9.20;79.70
24678;DHT22;12800;53.094;8.778;2023-04-15T02:08:19;9.20;79.80
24678;DHT22;12800;53.094;8.778;2023-04-15T02:10:45;9.20;80.00
24678;DHT22;12800;53.094;8.778;2023-04-15T02:13:11;9.20;80.00
24678;DHT22;12800;53.094;8.778;2023-04-15T02:15:36;9.20;80.00
24678;DHT22;12800;53.094;8.778;2023-04-15T02:18:02;9.20;80.00
24678;DHT22;12800;53.094;8.778;2023-04-15T02:20:28;9.20;80.00
24678;DHT22;12800;53.094;8.778;2023-04-15T02:22:55;9.20;80.10
24678;DHT22;12800;53.094;8.778;2023-04-15T02:25:21;9.20;80.30
24678;DHT22;12800;53.094;8.778;2023-04-15T02:27:47;9.20;80.20
24678;DHT22;12800;53.094;8.778;2023-04-15T02:30:12;9.10;80.30
24678;DHT22;12800;53.094;8.778;2023-04-15T02:32:39;9.20;80.50
24678;DHT22;12800;53.094;8.778;2023-04-15T02:35:06;9.10;80.30
24678;DHT22;12800;53.094;8.778;2023-04-15T02:37:34;9.10;80.30
24678;DHT22;12800;53.094;8.778;2023-04-15T02:40:06;9.10;80.40
24678;DHT22;12800;53.094;8.778;2023-04-15T02:42:32;9.10;80.50
24678;DHT22;12800;53.094;8.778;2023-04-15T02:44:58;9.10;80.60
24678;DHT22;12800;53.094;8.778;2023-04-15T02:47:23;9.10;80.60
24678;DHT22;12800;53.094;8.778;2023-04-15T02:49:49;9.10;80.80
24678;DHT22;12800;53.094;8.778;2023-04-15T02:52:15;9.00;80.80
24678;DHT22;12800;53.094;8.778;2023-04-15T02:54:40;9.10;81.00
24678;DHT22;12800;53.094;8.778;2023-04-15T02:57:06;9.10;81.10
24678;DHT22;12800;53.094;8.778;2023-04-15T02:59:32;9.10;81.10
24678;DHT22;12800;53.094;8.778;2023-04-15T03:01:57;9.10;81.20
24678;DHT22;12800;53.094;8.778;2023-04-15T03:04:26;9.10;81.10
24678;DHT22;12800;53.094;8.778;2023-04-15T03:06:54;9.20;81.20
24678;DHT22;12800;53.094;8.778;2023-04-15T03:09:20;9.10;81.20
24678;DHT22;12800;53.094;8.778;2023-04-15T03:11:46;9.10;81.30
24678;DHT22;12800;53.094;8.778;2023-04-15T03:14:11;9.10;81.30
24678;DHT22;12800;53.094;8.778;2023-04-15T03:16:37;9.10;81.50
24678;DHT22;12800;53.094;8.778;2023-04-15T03:19:02;9.10;81.60
24678;DHT22;12800;53.094;8.778;2023-04-15T03:21:28;9.10;81.60
24678;DHT22;12800;53.094;8.778;2023-04-15T03:23:54;9.20;81.80
24678;DHT22;12800;53.094;8.778;2023-04-15T03:26:27;9.10;81.80
24678;DHT22;12800;53.094;8.778;2023-04-15T03:28:54;9.20;81.90
24678;DHT22;12800;53.094;8.778;2023-04-15T03:31:20;9.20;82.00
24678;DHT22;12800;53.094;8.778;2023-04-15T03:33:46;9.20;81.90
24678;DHT22;12800;53.094;8.778;2023-04-15T03:36:11;9.20;82.00
24678;DHT22;12800;53.094;8.778;2023-04-15T03:38:37;9.20;82.10
24678;DHT22;12800;53.094;8.778;2023-04-15T03:41:02;9.20;82.20
24678;DHT22;12800;53.094;8.778;2023-04-15T03:43:28;9.20;82.30
24678;DHT22;12800;53.094;8.778;2023-04-15T03:45:54;9.20;82.40
24678;DHT22;12800;53.094;8.778;2023-04-15T03:48:19;9.20;82.40
24678;DHT22;12800;53.094;8.778;2023-04-15T03:50:45;9.20;82.50
24678;DHT22;12800;53.094;8.778;2023-04-15T03:53:11;9.20;82.60
24678;DHT22;12800;53.094;8.778;2023-04-15T03:55:36;9.20;82.70
24678;DHT22;12800;53.094;8.778;2023-04-15T03:58:02;9.20;82.70
24678;DHT22;12800;53.094;8.778;2023-04-15T04:00:28;9.20;82.80
24678;DHT22;12800;53.094;8.778;2023-04-15T04:02:53;9.20;82.90
24678;DHT22;12800;53.094;8.778;2023-04-15T04:05:19;9.20;82.90
24678;DHT22;12800;53.094;8.778;2023-04-15T04:07:45;9.20;83.10
24678;DHT22;12800;53.094;8.778;2023-04-15T04:10:11;9.20;83.20
24678;DHT22;12800;53.094;8.778;2023-04-15T04:12:37;9.30;83.20
24678;DHT22;12800;53.094;8.778;2023-04-15T04:15:03;9.20;83.20
24678;DHT22;12800;53.094;8.778;2023-04-15T04:17:29;9.20;83.20
24678;DHT22;12800;53.094;8.778;2023-04-15T04:19:54;9.30;83.40
24678;DHT22;12800;53.094;8.778;2023-04-15T04:22:23;9.30;83.50
24678;DHT22;12800;53.094;8.778;2023-04-15T04:24:49;9.30;83.60
24678;DHT22;12800;53.094;8.778;2023-04-15T04:27:15;9.30;83.50
24678;DHT22;12800;53.094;8.778;2023-04-15T04:29:41;9.40;83.50
24678;DHT22;12800;53.094;8.778;2023-04-15T04:32:06;9.40;83.50
24678;DHT22;12800;53.094;8.778;2023-04-15T04:34:32;9.40;83.50
24678;DHT22;12800;53.094;8.778;2023-04-15T04:36:58;9.40;83.60
24678;DHT22;12800;53.094;8.778;2023-04-15T04:39:24;9.40;83.60
24678;DHT22;12800;53.094;8.778;2023-04-15T04:41:49;9.40;83.60
24678;DHT22;12800;53.094;8.778;2023-04-15T04:44:17;9.40;83.60
24678;DHT22;12800;53.094;8.778;2023-04-15T04:46:42;9.40;83.70
24678;DHT22;12800;53.094;8.778;2023-04-15T04:49:08;9.40;83.80
24678;DHT22;12800;53.094;8.778;2023-04-15T04:51:34;9.40;84.80
24678;DHT22;12800;53.094;8.778;2023-04-15T04:53:59;9.40;84.10
24678;DHT22;12800;53.094;8.778;2023-04-15T04:56:25;9.40;84.20
24678;DHT22;12800;53.094;8.778;2023-04-15T04:58:51;9.40;84.30
24678;DHT22;12800;53.094;8.778;2023-04-15T05:01:17;9.40;84.40
24678;DHT22;12800;53.094;8.778;2023-04-15T05:03:43;9.50;84.50
24678;DHT22;12800;53.094;8.778;2023-04-15T05:06:09;9.50;84.50
24678;DHT22;12800;53.094;8.778;2023-04-15T05:08:35;9.50;84.60
24678;DHT22;12800;53.094;8.778;2023-04-15T05:11:01;9.50;84.50
24678;DHT22;12800;53.094;8.778;2023-04-15T05:13:27;9.50;84.40
24678;DHT22;12800;53.094;8.778;2023-04-15T05:15:53;9.50;84.70
24678;DHT22;12800;53.094;8.778;2023-04-15T05:18:18;9.50;84.90
24678;DHT22;12800;53.094;8.778;2023-04-15T05:20:45;9.50;85.00
24678;DHT22;12800;53.094;8.778;2023-04-15T05:23:10;9.50;85.10
24678;DHT22;12800;53.094;8.778;2023-04-15T05:25:36;9.50;85.10
24678;DHT22;12800;53.094;8.778;2023-04-15T05:28:02;9.50;85.10
24678;DHT22;12800;53.094;8.778;2023-04-15T05:30:27;9.50;85.20
24678;DHT22;12800;53.094;8.778;2023-04-15T05:32:53;9.50;85.30
24678;DHT22;12800;53.094;8.778;2023-04-15T05:35:19;9.50;85.50
24678;DHT22;12800;53.094;8.778;2023-04-15T05:37:44;9.50;85.40
24678;DHT22;12800;53.094;8.778;2023-04-15T05:40:11;9.50;85.40
24678;DHT22;12800;53.094;8.778;2023-04-15T05:42:36;9.50;85.50
24678;DHT22;12800;53.094;8.778;2023-04-15T05:45:03;9.50;85.80
24678;DHT22;12800;53.094;8.778;2023-04-15T05:47:30;9.50;85.80
24678;DHT22;12800;53.094;8.778;2023-04-15T05:49:56;9.50;86.10
24678;DHT22;12800;53.094;8.778;2023-04-15T05:52:23;9.50;86.30
24678;DHT22;12800;53.094;8.778;2023-04-15T05:54:49;9.50;86.20
24678;DHT22;12800;53.094;8.778;2023-04-15T05:57:15;9.50;86.10
24678;DHT22;12800;53.094;8.778;2023-04-15T05:59:40;9.50;86.40
24678;DHT22;12800;53.094;8.778;2023-04-15T06:02:08;9.50;86.60
24678;DHT22;12800;53.094;8.778;2023-04-15T06:04:34;9.50;86.70
24678;DHT22;12800;53.094;8.778;2023-04-15T06:07:01;9.50;86.80
24678;DHT22;12800;53.094;8.778;2023-04-15T06:09:27;9.60;87.00
24678;DHT22;12800;53.094;8.778;2023-04-15T06:11:53;9.60;87.00
24678;DHT22;12800;53.094;8.778;2023-04-15T06:14:19;9.60;87.00
24678;DHT22;12800;53.094;8.778;2023-04-15T06:16:45;9.60;87.10
24678;DHT22;12800;53.094;8.778;2023-04-15T06:19:11;9.50;87.10
24678;DHT22;12800;53.094;8.778;2023-04-15T06:21:37;9.60;87.30
24678;DHT22;12800;53.094;8.778;2023-04-15T06:24:03;9.60;87.30
24678;DHT22;12800;53.094;8.778;2023-04-15T06:26:28;9.60;87.40
24678;DHT22;12800;53.094;8.778;2023-04-15T06:28:54;9.60;87.40
24678;DHT22;12800;53.094;8.778;2023-04-15T06:31:20;9.70;87.60
24678;DHT22;12800;53.094;8.778;2023-04-15T06:33:46;9.70;87.50
24678;DHT22;12800;53.094;8.778;2023-04-15T06:36:11;9.70;87.60
24678;DHT22;12800;53.094;8.778;2023-04-15T06:38:37;9.70;87.80
24678;DHT22;12800;53.094;8.778;2023-04-15T06:41:03;9.70;87.90
24678;DHT22;12800;53.094;8.778;2023-04-15T06:43:29;9.70;87.80
24678;DHT22;12800;53.094;8.778;2023-04-15T06:45:55;9.80;87.70
24678;DHT22;12800;53.094;8.778;2023-04-15T06:48:21;9.80;87.80
24678;DHT22;12800;53.094;8.778;2023-04-15T06:50:48;9.80;87.70
24678;DHT22;12800;53.094;8.778;2023-04-15T06:53:14;9.80;87.90
24678;DHT22;12800;53.094;8.778;2023-04-15T06:55:40;9.80;87.90
24678;DHT22;12800;53.094;8.778;2023-04-15T06:58:06;9.80;88.00
24678;DHT22;12800;53.094;8.778;2023-04-15T07:00:32;9.80;88.00
24678;DHT22;12800;53.094;8.778;2023-04-15T07:02:58;9.80;88.00
24678;DHT22;12800;53.094;8.778;2023-04-15T07:05:27;9.80;88.30
24678;DHT22;12800;53.094;8.778;2023-04-15T07:07:52;9.90;88.30
24678;DHT22;12800;53.094;8.778;2023-04-15T07:10:18;9.90;88.30
24678;DHT22;12800;53.094;8.778;2023-04-15T07:12:44;9.90;88.30
24678;DHT22;12800;53.094;8.778;2023-04-15T07:15:10;9.90;88.40
24678;DHT22;12800;53.094;8.778;2023-04-15T07:17:36;9.90;88.50
24678;DHT22;12800;53.094;8.778;2023-04-15T07:20:03;9.90;88.50
24678;DHT22;12800;53.094;8.778;2023-04-15T07:22:29;9.90;88.50
24678;DHT22;12800;53.094;8.778;2023-04-15T07:24:55;10.00;88.80
24678;DHT22;12800;53.094;8.778;2023-04-15T07:27:21;10.00;88.70
24678;DHT22;12800;53.094;8.778;2023-04-15T07:29:47;10.00;88.60
24678;DHT22;12800;53.094;8.778;2023-04-15T07:32:13;10.00;88.90
24678;DHT22;12800;53.094;8.778;2023-04-15T07:34:38;10.00;88.90
24678;DHT22;12800;53.094;8.778;2023-04-15T07:37:04;10.10;89.00
24678;DHT22;12800;53.094;8.778;2023-04-15T07:39:30;10.10;89.00
24678;DHT22;12800;53.094;8.778;2023-04-15T07:41:55;10.10;88.90
24678;DHT22;12800;53.094;8.778;2023-04-15T07:44:21;10.10;89.00
24678;DHT22;12800;53.094;8.778;2023-04-15T07:46:47;10.10;88.90
24678;DHT22;12800;53.094;8.778;2023-04-15T07:49:12;10.10;88.90
24678;DHT22;12800;53.094;8.778;2023-04-15T07:51:38;10.10;89.10
24678;DHT22;12800;53.094;8.778;2023-04-15T07:54:04;10.10;89.10
24678;DHT22;12800;53.094;8.778;2023-04-15T07:56:30;10.10;89.40
24678;DHT22;12800;53.094;8.778;2023-04-15T07:58:55;10.20;89.60
24678;DHT22;12800;53.094;8.778;2023-04-15T08:01:21;10.20;89.80
24678;DHT22;12800;53.094;8.778;2023-04-15T08:03:47;10.30;89.60
24678;DHT22;12800;53.094;8.778;2023-04-15T08:06:13;10.30;89.40
24678;DHT22;12800;53.094;8.778;2023-04-15T08:08:40;10.30;89.40
24678;DHT22;12800;53.094;8.778;2023-04-15T08:11:06;10.30;89.30
24678;DHT22;12800;53.094;8.778;2023-04-15T08:13:31;10.30;89.30
24678;DHT22;12800;53.094;8.778;2023-04-15T08:16:32;10.30;89.50
24678;DHT22;12800;53.094;8.778;2023-04-15T08:18:58;10.30;89.50
24678;DHT22;12800;53.094;8.778;2023-04-15T08:21:24;10.30;89.40
24678;DHT22;12800;53.094;8.778;2023-04-15T08:23:51;10.40;89.60
24678;DHT22;12800;53.094;8.778;2023-04-15T08:26:17;10.40;89.80
24678;DHT22;12800;53.094;8.778;2023-04-15T08:28:44;10.40;89.80
24678;DHT22;12800;53.094;8.778;2023-04-15T08:31:13;10.40;89.60
24678;DHT22;12800;53.094;8.778;2023-04-15T08:33:39;10.40;89.40
24678;DHT22;12800;53.094;8.778;2023-04-15T08:36:05;10.30;89.40
24678;DHT22;12800;53.094;8.778;2023-04-15T08:38:32;10.40;89.70
24678;DHT22;12800;53.094;8.778;2023-04-15T08:40:59;10.30;89.60
24678;DHT22;12800;53.094;8.778;2023-04-15T08:43:28;10.30;89.60
24678;DHT22;12800;53.094;8.778;2023-04-15T08:45:57;10.30;89.80
24678;DHT22;12800;53.094;8.778;2023-04-15T08:48:28;10.30;90.00
24678;DHT22;12800;53.094;8.778;2023-04-15T08:50:54;10.30;90.10
24678;DHT22;12800;53.094;8.778;2023-04-15T08:53:19;10.40;90.10
24678;DHT22;12800;53.094;8.778;2023-04-15T08:55:47;10.40;90.00
24678;DHT22;12800;53.094;8.778;2023-04-15T08:58:15;10.40;90.00
24678;DHT22;12800;53.094;8.778;2023-04-15T09:00:42;10.40;90.10
24678;DHT22;12800;53.094;8.778;2023-04-15T09:03:08;10.40;90.10
24678;DHT22;12800;53.094;8.778;2023-04-15T09:05:35;10.40;90.10
24678;DHT22;12800;53.094;8.778;2023-04-15T09:08:02;10.50;90.20
24678;DHT22;12800;53.094;8.778;2023-04-15T09:10:28;10.50;90.20
24678;DHT22;12800;53.094;8.778;2023-04-15T09:12:55;10.50;90.10
24678;DHT22;12800;53.094;8.778;2023-04-15T09:15:20;10.50;90.20
24678;DHT22;12800;53.094;8.778;2023-04-15T09:17:48;10.50;90.10
24678;DHT22;12800;53.094;8.778;2023-04-15T09:20:15;10.50;90.10
24678;DHT22;12800;53.094;8.778;2023-04-15T09:22:42;10.50;90.10
24678;DHT22;12800;53.094;8.778;2023-04-15T09:27:53;10.50;90.20
24678;DHT22;12800;53.094;8.778;2023-04-15T09:30:19;10.50;90.30
24678;DHT22;12800;53.094;8.778;2023-04-15T09:32:52;10.60;90.30
24678;DHT22;12800;53.094;8.778;2023-04-15T09:35:21;10.60;90.60
24678;DHT22;12800;53.094;8.778;2023-04-15T09:37:50;10.50;90.30
24678;DHT22;12800;53.094;8.778;2023-04-15T09:40:36;10.60;90.30
24678;DHT22;12800;53.094;8.778;2023-04-15T09:43:03;10.60;90.30
24678;DHT22;12800;53.094;8.778;2023-04-15T09:45:31;10.60;90.40
24678;DHT22;12800;53.094;8.778;2023-04-15T09:47:58;10.60;90.30
24678;DHT22;12800;53.094;8.778;2023-04-15T09:50:27;10.60;90.30
24678;DHT22;12800;53.094;8.778;2023-04-15T09:52:54;10.60;90.30
24678;DHT22;12800;53.094;8.778;2023-04-15T09:55:20;10.60;90.30
24678;DHT22;12800;53.094;8.778;2023-04-15T09:57:46;10.60;90.30
24678;DHT22;12800;53.094;8.778;2023-04-15T10:00:12;10.60;90.40
24678;DHT22;12800;53.094;8.778;2023-04-15T10:02:41;10.70;90.30
24678;DHT22;12800;53.094;8.778;2023-04-15T10:05:13;10.60;90.20
24678;DHT22;12800;53.094;8.778;2023-04-15T10:07:39;10.60;90.20
24678;DHT22;12800;53.094;8.778;2023-04-15T10:10:06;10.60;90.30
24678;DHT22;12800;53.094;8.778;2023-04-15T10:12:32;10.60;90.40
24678;DHT22;12800;53.094;8.778;2023-04-15T10:15:02;10.60;90.40
24678;DHT22;12800;53.094;8.778;2023-04-15T10:17:29;10.60;90.30
24678;DHT22;12800;53.094;8.778;2023-04-15T10:20:01;10.60;90.40
24678;DHT22;12800;53.094;8.778;2023-04-15T10:22:29;10.70;90.40
24678;DHT22;12800;53.094;8.778;2023-04-15T10:24:56;10.70;90.40
24678;DHT22;12800;53.094;8.778;2023-04-15T10:27:22;10.70;90.40
24678;DHT22;12800;53.094;8.778;2023-04-15T10:29:51;10.70;90.40
24678;DHT22;12800;53.094;8.778;2023-04-15T10:32:20;10.70;90.40
24678;DHT22;12800;53.094;8.778;2023-04-15T10:34:47;10.80;90.40
24678;DHT22;12800;53.094;8.778;2023-04-15T10:37:20;10.80;90.40
24678;DHT22;12800;53.094;8.778;2023-04-15T10:39:46;10.80;90.30
24678;DHT22;12800;53.094;8.778;2023-04-15T10:42:17;10.80;90.30
24678;DHT22;12800;53.094;8.778;2023-04-15T10:44:55;10.80;90.30
24678;DHT22;12800;53.094;8.778;2023-04-15T10:47:21;10.80;90.40
24678;DHT22;12800;53.094;8.778;2023-04-15T10:49:58;10.80;90.40
24678;DHT22;12800;53.094;8.778;2023-04-15T10:52:26;10.90;90.40
24678;DHT22;12800;53.094;8.778;2023-04-15T10:55:17;10.90;90.40
24678;DHT22;12800;53.094;8.778;2023-04-15T10:57:43;10.90;90.40
24678;DHT22;12800;53.094;8.778;2023-04-15T11:00:16;10.90;90.40
24678;DHT22;12800;53.094;8.778;2023-04-15T11:02:54;10.90;90.30
24678;DHT22;12800;53.094;8.778;2023-04-15T11:05:47;10.80;90.30
24678;DHT22;12800;53.094;8.778;2023-04-15T11:08:09;10.80;90.40
24678;DHT22;12800;53.094;8.778;2023-04-15T11:15:43;10.90;90.50
24678;DHT22;12800;53.094;8.778;2023-04-15T11:23:18;10.90;90.50
24678;DHT22;12800;53.094;8.778;2023-04-15T11:25:44;10.90;90.50
24678;DHT22;12800;53.094;8.778;2023-04-15T11:28:11;10.90;90.40
24678;DHT22;12800;53.094;8.778;2023-04-15T11:30:38;10.90;90.50
24678;DHT22;12800;53.094;8.778;2023-04-15T11:33:06;10.90;90.90
24678;DHT22;12800;53.094;8.778;2023-04-15T11:35:36;11.00;90.50
24678;DHT22;12800;53.094;8.778;2023-04-15T11:38:10;11.00;90.50
24678;DHT22;12800;53.094;8.778;2023-04-15T11:40:36;11.00;90.50
24678;DHT22;12800;53.094;8.778;2023-04-15T11:45:59;10.90;90.50
24678;DHT22;12800;53.094;8.778;2023-04-15T11:48:32;10.90;90.60
24678;DHT22;12800;53.094;8.778;2023-04-15T11:51:08;11.00;90.70
24678;DHT22;12800;53.094;8.778;2023-04-15T11:53:45;11.00;90.80
24678;DHT22;12800;53.094;8.778;2023-04-15T11:56:19;11.00;90.70
24678;DHT22;12800;53.094;8.778;2023-04-15T11:58:46;11.00;90.70
24678;DHT22;12800;53.094;8.778;2023-04-15T12:01:12;11.00;90.80
24678;DHT22;12800;53.094;8.778;2023-04-15T12:03:43;11.00;90.80
24678;DHT22;12800;53.094;8.778;2023-04-15T12:06:22;11.10;90.80
24678;DHT22;12800;53.094;8.778;2023-04-15T12:11:43;11.10;90.90
24678;DHT22;12800;53.094;8.778;2023-04-15T12:14:20;11.10;90.90
24678;DHT22;12800;53.094;8.778;2023-04-15T12:16:48;11.20;91.00
24678;DHT22;12800;53.094;8.778;2023-04-15T12:19:25;11.20;90.90
24678;DHT22;12800;53.094;8.778;2023-04-15T12:22:25;11.20;90.80
24678;DHT22;12800;53.094;8.778;2023-04-15T12:24:45;11.10;90.90
24678;DHT22;12800;53.094;8.778;2023-04-15T12:27:15;11.10;90.90
24678;DHT22;12800;53.094;8.778;2023-04-15T12:29:42;11.10;91.00
24678;DHT22;12800;53.094;8.778;2023-04-15T12:32:09;11.10;91.10
24678;DHT22;12800;53.094;8.778;2023-04-15T12:37:07;11.20;91.20
24678;DHT22;12800;53.094;8.778;2023-04-15T12:39:38;11.20;91.20
24678;DHT22;12800;53.094;8.778;2023-04-15T12:42:04;11.30;91.20
24678;DHT22;12800;53.094;8.778;2023-04-15T12:44:30;11.30;91.20
24678;DHT22;12800;53.094;8.778;2023-04-15T12:46:57;11.30;91.10
24678;DHT22;12800;53.094;8.778;2023-04-15T12:49:24;11.40;91.10
24678;DHT22;12800;53.094;8.778;2023-04-15T12:51:52;11.40;91.20
24678;DHT22;12800;53.094;8.778;2023-04-15T12:54:19;11.50;91.20
24678;DHT22;12800;53.094;8.778;2023-04-15T12:56:45;11.50;91.10
24678;DHT22;12800;53.094;8.778;2023-04-15T12:59:12;11.50;91.10
24678;DHT22;12800;53.094;8.778;2023-04-15T13:01:38;11.60;91.10
24678;DHT22;12800;53.094;8.778;2023-04-15T13:04:04;11.60;91.10
24678;DHT22;12800;53.094;8.778;2023-04-15T13:06:31;11.60;91.10
24678;DHT22;12800;53.094;8.778;2023-04-15T13:09:00;11.60;91.00
24678;DHT22;12800;53.094;8.778;2023-04-15T13:11:27;11.70;91.00
24678;DHT22;12800;53.094;8.778;2023-04-15T13:13:56;11.70;91.00
24678;DHT22;12800;53.094;8.778;2023-04-15T13:16:22;11.70;91.00
24678;DHT22;12800;53.094;8.778;2023-04-15T13:18:48;11.80;91.00
24678;DHT22;12800;53.094;8.778;2023-04-15T13:21:14;11.80;90.90
24678;DHT22;12800;53.094;8.778;2023-04-15T13:23:42;11.80;91.00
24678;DHT22;12800;53.094;8.778;2023-04-15T13:26:08;11.90;91.00
24678;DHT22;12800;53.094;8.778;2023-04-15T13:28:34;12.10;91.00
24678;DHT22;12800;53.094;8.778;2023-04-15T13:31:00;12.30;91.20
24678;DHT22;12800;53.094;8.778;2023-04-15T13:33:26;12.60;91.10
24678;DHT22;12800;53.094;8.778;2023-04-15T13:35:52;12.80;90.80
24678;DHT22;12800;53.094;8.778;2023-04-15T13:38:18;13.00;90.70
24678;DHT22;12800;53.094;8.778;2023-04-15T13:40:43;13.20;90.30
24678;DHT22;12800;53.094;8.778;2023-04-15T13:43:09;13.40;90.00
24678;DHT22;12800;53.094;8.778;2023-04-15T13:45:35;13.60;89.70
24678;DHT22;12800;53.094;8.778;2023-04-15T13:48:01;13.70;89.40
24678;DHT22;12800;53.094;8.778;2023-04-15T13:50:27;13.80;88.80
24678;DHT22;12800;53.094;8.778;2023-04-15T13:52:53;13.90;88.00
24678;DHT22;12800;53.094;8.778;2023-04-15T13:55:19;13.80;87.40
24678;DHT22;12800;53.094;8.778;2023-04-15T13:57:45;13.80;87.00
24678;DHT22;12800;53.094;8.778;2023-04-15T14:00:11;13.70;87.00
24678;DHT22;12800;53.094;8.778;2023-04-15T14:02:37;13.60;86.60
24678;DHT22;12800;53.094;8.778;2023-04-15T14:05:03;13.60;86.80
24678;DHT22;12800;53.094;8.778;2023-04-15T14:07:29;13.60;86.90
24678;DHT22;12800;53.094;8.778;2023-04-15T14:09:55;13.60;86.90
24678;DHT22;12800;53.094;8.778;2023-04-15T14:12:21;13.70;86.70
24678;DHT22;12800;53.094;8.778;2023-04-15T14:14:47;13.70;86.60
24678;DHT22;12800;53.094;8.778;2023-04-15T14:17:12;13.70;86.20
24678;DHT22;12800;53.094;8.778;2023-04-15T14:19:38;13.70;86.30
24678;DHT22;12800;53.094;8.778;2023-04-15T14:22:04;13.70;86.50
24678;DHT22;12800;53.094;8.778;2023-04-15T14:24:30;13.80;86.70
24678;DHT22;12800;53.094;8.778;2023-04-15T14:26:57;13.90;86.40
24678;DHT22;12800;53.094;8.778;2023-04-15T14:29:22;13.90;86.10
24678;DHT22;12800;53.094;8.778;2023-04-15T14:31:48;14.00;86.10
24678;DHT22;12800;53.094;8.778;2023-04-15T14:34:15;14.00;85.80
24678;DHT22;12800;53.094;8.778;2023-04-15T14:36:41;14.10;85.60
24678;DHT22;12800;53.094;8.778;2023-04-15T14:39:06;14.10;85.40
24678;DHT22;12800;53.094;8.778;2023-04-15T14:41:33;14.10;85.40
24678;DHT22;12800;53.094;8.778;2023-04-15T14:43:58;14.10;85.40
24678;DHT22;12800;53.094;8.778;2023-04-15T14:46:25;14.20;85.20
24678;DHT22;12800;53.094;8.778;2023-04-15T14:48:50;14.30;84.90
24678;DHT22;12800;53.094;8.778;2023-04-15T14:51:16;14.40;84.80
24678;DHT22;12800;53.094;8.778;2023-04-15T14:53:42;14.40;84.50
24678;DHT22;12800;53.094;8.778;2023-04-15T14:56:08;14.40;84.10
24678;DHT22;12800;53.094;8.778;2023-04-15T14:58:34;14.40;84.30
24678;DHT22;12800;53.094;8.778;2023-04-15T15:01:00;14.40;84.20
24678;DHT22;12800;53.094;8.778;2023-04-15T15:03:27;14.50;84.60
24678;DHT22;12800;53.094;8.778;2023-04-15T15:05:53;14.70;84.40
24678;DHT22;12800;53.094;8.778;2023-04-15T15:08:19;14.90;84.20
24678;DHT22;12800;53.094;8.778;2023-04-15T15:10:45;15.20;84.10
24678;DHT22;12800;53.094;8.778;2023-04-15T15:13:11;15.30;82.40
24678;DHT22;12800;53.094;8.778;2023-04-15T15:15:37;15.20;82.00
24678;DHT22;12800;53.094;8.778;2023-04-15T15:18:03;15.20;82.00
24678;DHT22;12800;53.094;8.778;2023-04-15T15:20:30;15.10;82.00
24678;DHT22;12800;53.094;8.778;2023-04-15T15:22:56;15.00;81.70
24678;DHT22;12800;53.094;8.778;2023-04-15T15:25:21;14.90;81.90
24678;DHT22;12800;53.094;8.778;2023-04-15T15:27:47;14.80;82.00
24678;DHT22;12800;53.094;8.778;2023-04-15T15:30:13;14.70;82.10
24678;DHT22;12800;53.094;8.778;2023-04-15T15:32:40;14.60;82.00
24678;DHT22;12800;53.094;8.778;2023-04-15T15:35:06;14.50;83.20
24678;DHT22;12800;53.094;8.778;2023-04-15T15:37:32;14.50;82.70
24678;DHT22;12800;53.094;8.778;2023-04-15T15:39:58;14.40;82.70
24678;DHT22;12800;53.094;8.778;2023-04-15T15:42:25;14.40;82.90
24678;DHT22;12800;53.094;8.778;2023-04-15T15:44:51;14.50;83.20
24678;DHT22;12800;53.094;8.778;2023-04-15T15:47:18;14.60;83.10
24678;DHT22;12800;53.094;8.778;2023-04-15T15:49:44;14.60;83.00
24678;DHT22;12800;53.094;8.778;2023-04-15T15:52:10;14.60;82.90
24678;DHT22;12800;53.094;8.778;2023-04-15T15:54:36;14.60;83.00
24678;DHT22;12800;53.094;8.778;2023-04-15T15:57:02;14.50;82.90